N5CSC Weather Reports


Display with metric or nautical units.
time (UTC)temp
F
wind
direction
speed
MPH
gust
MPH
rain 1hr
in
rain 24hr
in
rain mn
in
humidity
%
barometer
mb
20240223014527 73 332 2.0 6.0 0.00 0.00 0.00 21 1009.0
20240223013025 74 302 2.0 4.0 0.00 0.00 0.00 18 1008.8
20240223011625 75 290 2.0 4.0 0.00 0.00 0.00 18 1008.6
20240223010025 76 304 1.0 4.0 0.00 0.00 0.00 16 1008.4
20240223004525 77 360 2.0 4.0 0.00 0.00 0.00 16 1008.1
20240223003024 78 302 2.0 4.0 0.00 0.00 0.00 16 1007.9
20240223001532 79 315 3.0 6.0 0.00 0.00 0.00 16 1007.8
20240223000024 80 303 3.0 6.0 0.00 0.00 0.00 16 1007.6
20240222234522 81 302 4.0 8.0 0.00 0.00 0.00 15 1007.5
20240222233022 82 333 2.0 5.0 0.00 0.00 0.00 19 1007.2
20240222231527 83 306 2.0 8.0 0.00 0.00 0.00 13 1007.0
20240222230020 85 307 3.0 10.0 0.00 0.00 0.00 14 1007.0
20240222224521 86 280 6.0 12.0 0.00 0.00 0.00 16 1007.0
20240222223018 87 284 4.0 9.0 0.00 0.00 0.00 14 1007.0
20240222221526 87 296 5.0 9.0 0.00 0.00 0.00 19 1006.9
20240222220031 87 309 5.0 10.0 0.00 0.00 0.00 19 1006.9
20240222214513 86 291 5.0 10.0 0.00 0.00 0.00 19 1007.0
20240222213009 85 301 5.0 9.0 0.00 0.00 0.00 22 1006.9
20240222211508 84 167 3.0 9.0 0.00 0.00 0.00 44 1006.9
20240222210004 84 194 1.0 5.0 0.00 0.00 0.00 40 1007.3
20240222204502 84 226 2.0 5.0 0.00 0.00 0.00 45 1007.6
20240222203059 83 269 1.0 5.0 0.00 0.00 0.00 44 1007.7
20240222201556 82 286 2.0 6.0 0.00 0.00 0.00 48 1007.9
20240222200053 81 163 0.0 4.0 0.00 0.00 0.00 51 1008.1
20240222194548 80 248 2.0 5.0 0.00 0.00 0.00 49 1008.4
20240222193049 79 296 2.0 5.0 0.00 0.00 0.00 53 1008.8
20240222191539 78 181 1.0 4.0 0.00 0.00 0.00 57 1009.2
20240222190036 77 304 2.0 7.0 0.00 0.00 0.00 59 1009.6
20240222184540 76 194 1.0 5.0 0.00 0.00 0.00 62 1009.8
20240222183045 76 311 3.0 9.0 0.00 0.00 0.00 62 1010.3
20240222181527 74 261 2.0 6.0 0.00 0.00 0.00 66 1010.5
20240222180024 73 217 2.0 5.0 0.00 0.00 0.00 66 1011.0
20240222174523 73 261 2.0 7.0 0.00 0.00 0.00 67 1011.2
20240222173020 73 304 2.0 6.0 0.00 0.00 0.00 70 1011.5
20240222171516 71 231 1.0 3.0 0.00 0.00 0.00 73 1011.5
20240222170014 70 208 1.0 6.0 0.00 0.00 0.00 74 1011.5
20240222164511 70 257 0.0 4.0 0.00 0.00 0.00 76 1011.7
20240222163011 69 202 1.0 3.0 0.00 0.00 0.00 77 1011.4
20240222161509 68 209 1.0 4.0 0.00 0.00 0.00 78 1011.2
20240222160004 67 177 0.0 5.0 0.00 0.00 0.00 80 1011.7
20240222154504 67 50 0.0 0.0 0.00 0.00 0.00 81 1011.6
20240222153059 66 50 0.0 0.0 0.00 0.00 0.00 81 1012.0
20240222151557 66 84 0.0 0.0 0.00 0.00 0.00 83 1011.4
20240222150058 65 84 0.0 0.0 0.00 0.00 0.00 83 1011.7
20240222144555 65 308 0.0 0.0 0.00 0.00 0.00 83 1011.3
20240222143054 64 308 0.0 0.0 0.00 0.00 0.00 84 1011.4
20240222141554 64 307 0.0 2.0 0.00 0.00 0.00 84 1011.1
20240222140052 64 306 1.0 2.0 0.00 0.00 0.00 83 1010.9
20240222134555 64 302 0.0 1.0 0.00 0.00 0.00 83 1010.8
20240222133101 64 302 0.0 0.0 0.00 0.00 0.00 83 1010.8
20240222131557 64 302 0.0 1.0 0.00 0.00 0.00 83 1011.1
20240222130050 64 302 0.0 2.0 0.00 0.00 0.00 83 1010.8
20240222124558 64 302 0.0 1.0 0.00 0.00 0.00 83 1011.0
20240222123049 64 302 0.0 2.0 0.00 0.00 0.00 83 1011.0
20240222121557 64 302 0.0 2.0 0.00 0.00 0.00 82 1011.4
20240222120103 64 302 1.0 2.0 0.00 0.00 0.00 82 1010.9
20240222114556 64 302 0.0 1.0 0.00 0.00 0.00 82 1011.4
20240222113054 65 302 1.0 3.0 0.00 0.00 0.00 82 1011.7
20240222111603 65 302 0.0 3.0 0.00 0.00 0.00 81 1011.4
20240222110046 65 302 1.0 2.0 0.00 0.00 0.00 81 1011.4
20240222104546 65 311 4.0 7.0 0.00 0.00 0.00 81 1011.8
20240222103044 65 181 1.0 4.0 0.00 0.00 0.00 81 1010.2
20240222101544 65 186 2.0 5.0 0.00 0.00 0.00 81 1010.3
20240222100056 65 174 3.0 6.0 0.00 0.00 0.00 81 1010.2
20240222094542 65 180 2.0 7.0 0.00 0.00 0.00 81 1010.2
20240222093040 65 173 3.0 6.0 0.00 0.00 0.00 81 1010.2
20240222091538 65 190 4.0 8.0 0.00 0.00 0.00 80 1010.4
20240222090035 65 169 3.0 6.0 0.00 0.00 0.00 80 1010.6
20240222084534 65 162 3.0 6.0 0.00 0.00 0.00 80 1010.9
20240222083040 65 159 3.0 8.0 0.00 0.00 0.00 80 1010.9
20240222081530 65 159 3.0 5.0 0.00 0.00 0.00 80 1011.2
20240222080032 65 178 3.0 5.0 0.00 0.00 0.00 80 1011.3
20240222074529 65 167 3.0 7.0 0.00 0.00 0.00 80 1011.6
20240222073026 65 160 3.0 11.0 0.00 0.00 0.00 79 1011.8
20240222071526 65 165 4.0 11.0 0.00 0.00 0.00 79 1011.6
20240222070022 65 161 5.0 10.0 0.00 0.00 0.00 79 1011.9
20240222064524 65 196 5.0 9.0 0.00 0.00 0.00 79 1012.2
20240222063020 65 157 6.0 12.0 0.00 0.00 0.00 80 1012.1
20240222061517 65 190 5.0 10.0 0.00 0.00 0.00 81 1012.4
20240222060014 64 162 3.0 7.0 0.00 0.00 0.00 82 1012.5
20240222054518 64 169 3.0 6.0 0.00 0.00 0.00 81 1012.6
20240222053013 64 177 1.0 7.0 0.00 0.00 0.00 81 1013.0
20240222051513 64 153 3.0 7.0 0.00 0.00 0.00 82 1013.0
20240222050025 64 167 2.0 6.0 0.00 0.00 0.00 82 1013.2
20240222044512 63 170 3.0 7.0 0.00 0.00 0.00 81 1013.3
20240222043011 64 173 4.0 11.0 0.00 0.00 0.00 80 1013.0
20240222041511 64 168 5.0 10.0 0.00 0.00 0.00 80 1013.4
20240222040021 64 148 3.0 10.0 0.00 0.00 0.00 80 1013.4
20240222034518 64 162 5.0 11.0 0.00 0.00 0.00 79 1013.2
20240222033009 65 142 5.0 10.0 0.00 0.00 0.00 79 1012.4
20240222031516 65 84 5.0 11.0 0.00 0.00 0.00 79 1012.5
20240222030012 65 125 6.0 11.0 0.00 0.00 0.00 78 1012.2
20240222024506 66 138 6.0 12.0 0.00 0.00 0.00 77 1012.0
20240222023004 67 166 5.0 11.0 0.00 0.00 0.00 75 1012.2
20240222021502 67 119 5.0 12.0 0.00 0.00 0.00 74 1012.4
20240222020002 68 154 3.0 10.0 0.00 0.00 0.00 73 1012.6